sensor_id;sensor_type;location;lat;lon;timestamp;P1;durP1;ratioP1;P2;durP2;ratioP2
75189;SDS011;69198;44.694;37.790;2023-05-29T00:00:12;19.95;;;9.68;;
75189;SDS011;69198;44.694;37.790;2023-05-29T00:01:13;25.17;;;9.82;;
75189;SDS011;69198;44.694;37.790;2023-05-29T00:02:18;22.48;;;10.10;;
75189;SDS011;69198;44.694;37.790;2023-05-29T00:03:19;19.77;;;9.43;;
75189;SDS011;69198;44.694;37.790;2023-05-29T00:04:20;20.88;;;9.82;;
75189;SDS011;69198;44.694;37.790;2023-05-29T00:05:22;20.98;;;10.13;;
75189;SDS011;69198;44.694;37.790;2023-05-29T00:06:23;24.43;;;10.40;;
75189;SDS011;69198;44.694;37.790;2023-05-29T00:07:24;21.13;;;10.13;;
75189;SDS011;69198;44.694;37.790;2023-05-29T00:08:25;22.10;;;10.00;;
75189;SDS011;69198;44.694;37.790;2023-05-29T00:09:26;21.05;;;9.98;;
75189;SDS011;69198;44.694;37.790;2023-05-29T00:10:28;18.55;;;9.50;;
75189;SDS011;69198;44.694;37.790;2023-05-29T00:11:31;22.02;;;9.48;;
75189;SDS011;69198;44.694;37.790;2023-05-29T00:12:32;20.65;;;9.50;;
75189;SDS011;69198;44.694;37.790;2023-05-29T00:13:33;16.73;;;9.27;;
75189;SDS011;69198;44.694;37.790;2023-05-29T00:14:34;22.40;;;9.75;;
75189;SDS011;69198;44.694;37.790;2023-05-29T00:15:35;17.87;;;8.83;;
75189;SDS011;69198;44.694;37.790;2023-05-29T00:16:36;20.75;;;9.38;;
75189;SDS011;69198;44.694;37.790;2023-05-29T00:17:37;20.15;;;9.73;;
75189;SDS011;69198;44.694;37.790;2023-05-29T00:18:39;19.80;;;9.70;;
75189;SDS011;69198;44.694;37.790;2023-05-29T00:19:45;24.88;;;10.02;;
75189;SDS011;69198;44.694;37.790;2023-05-29T00:20:46;21.80;;;9.10;;
75189;SDS011;69198;44.694;37.790;2023-05-29T00:21:47;23.20;;;10.10;;
75189;SDS011;69198;44.694;37.790;2023-05-29T00:22:48;19.42;;;9.93;;
75189;SDS011;69198;44.694;37.790;2023-05-29T00:23:49;20.73;;;9.80;;
75189;SDS011;69198;44.694;37.790;2023-05-29T00:24:51;20.30;;;9.73;;
75189;SDS011;69198;44.694;37.790;2023-05-29T00:25:52;18.40;;;9.77;;
75189;SDS011;69198;44.694;37.790;2023-05-29T00:26:53;20.42;;;10.23;;
75189;SDS011;69198;44.694;37.790;2023-05-29T00:27:54;20.77;;;9.55;;
75189;SDS011;69198;44.694;37.790;2023-05-29T00:28:55;23.90;;;10.07;;
75189;SDS011;69198;44.694;37.790;2023-05-29T00:29:56;22.05;;;9.77;;
75189;SDS011;69198;44.694;37.790;2023-05-29T00:30:57;17.93;;;9.27;;
75189;SDS011;69198;44.694;37.790;2023-05-29T00:31:58;21.98;;;10.00;;
75189;SDS011;69198;44.694;37.790;2023-05-29T00:32:59;18.35;;;9.65;;
75189;SDS011;69198;44.694;37.790;2023-05-29T00:34:00;20.58;;;9.18;;
75189;SDS011;69198;44.694;37.790;2023-05-29T00:35:01;18.05;;;9.15;;
75189;SDS011;69198;44.694;37.790;2023-05-29T00:36:03;20.52;;;9.35;;
75189;SDS011;69198;44.694;37.790;2023-05-29T00:37:06;20.17;;;9.40;;
75189;SDS011;69198;44.694;37.790;2023-05-29T00:38:07;19.42;;;9.15;;
75189;SDS011;69198;44.694;37.790;2023-05-29T00:39:08;21.58;;;9.48;;
75189;SDS011;69198;44.694;37.790;2023-05-29T00:40:10;26.27;;;9.23;;
75189;SDS011;69198;44.694;37.790;2023-05-29T00:41:14;20.23;;;9.38;;
75189;SDS011;69198;44.694;37.790;2023-05-29T00:42:16;18.58;;;9.00;;
75189;SDS011;69198;44.694;37.790;2023-05-29T00:43:17;19.42;;;9.10;;
75189;SDS011;69198;44.694;37.790;2023-05-29T00:44:18;20.17;;;9.57;;
75189;SDS011;69198;44.694;37.790;2023-05-29T00:45:19;20.10;;;9.93;;
75189;SDS011;69198;44.694;37.790;2023-05-29T00:46:21;20.25;;;9.15;;
75189;SDS011;69198;44.694;37.790;2023-05-29T00:47:22;19.60;;;9.68;;
75189;SDS011;69198;44.694;37.790;2023-05-29T00:48:23;20.55;;;9.27;;
75189;SDS011;69198;44.694;37.790;2023-05-29T00:49:25;20.15;;;9.15;;
75189;SDS011;69198;44.694;37.790;2023-05-29T00:50:27;20.67;;;9.20;;
75189;SDS011;69198;44.694;37.790;2023-05-29T00:51:28;17.95;;;9.02;;
75189;SDS011;69198;44.694;37.790;2023-05-29T00:52:31;19.77;;;9.27;;
75189;SDS011;69198;44.694;37.790;2023-05-29T00:53:33;21.50;;;9.43;;
75189;SDS011;69198;44.694;37.790;2023-05-29T00:54:35;23.85;;;9.38;;
75189;SDS011;69198;44.694;37.790;2023-05-29T00:55:36;21.10;;;9.40;;
75189;SDS011;69198;44.694;37.790;2023-05-29T00:56:38;22.33;;;10.32;;
75189;SDS011;69198;44.694;37.790;2023-05-29T00:57:43;21.63;;;10.65;;
75189;SDS011;69198;44.694;37.790;2023-05-29T00:58:45;17.35;;;8.90;;
75189;SDS011;69198;44.694;37.790;2023-05-29T00:59:47;23.70;;;9.00;;
75189;SDS011;69198;44.694;37.790;2023-05-29T01:00:48;20.63;;;9.20;;
75189;SDS011;69198;44.694;37.790;2023-05-29T01:01:50;22.05;;;9.30;;
75189;SDS011;69198;44.694;37.790;2023-05-29T01:02:51;21.35;;;9.77;;
75189;SDS011;69198;44.694;37.790;2023-05-29T01:03:55;20.27;;;9.18;;
75189;SDS011;69198;44.694;37.790;2023-05-29T01:04:58;20.83;;;9.77;;
75189;SDS011;69198;44.694;37.790;2023-05-29T01:05:59;18.50;;;9.07;;
75189;SDS011;69198;44.694;37.790;2023-05-29T01:07:01;19.98;;;9.55;;
75189;SDS011;69198;44.694;37.790;2023-05-29T01:08:02;19.63;;;9.77;;
75189;SDS011;69198;44.694;37.790;2023-05-29T01:09:03;23.08;;;10.57;;
75189;SDS011;69198;44.694;37.790;2023-05-29T01:10:07;18.47;;;9.40;;
75189;SDS011;69198;44.694;37.790;2023-05-29T01:11:19;19.08;;;10.18;;
75189;SDS011;69198;44.694;37.790;2023-05-29T01:14:07;18.65;;;10.07;;
75189;SDS011;69198;44.694;37.790;2023-05-29T01:15:17;19.35;;;9.70;;
75189;SDS011;69198;44.694;37.790;2023-05-29T01:18:41;21.40;;;9.77;;
75189;SDS011;69198;44.694;37.790;2023-05-29T01:22:53;20.87;;;10.07;;
75189;SDS011;69198;44.694;37.790;2023-05-29T01:24:02;21.10;;;9.80;;
75189;SDS011;69198;44.694;37.790;2023-05-29T01:25:18;22.00;;;9.45;;
75189;SDS011;69198;44.694;37.790;2023-05-29T01:27:51;19.60;;;10.38;;
75189;SDS011;69198;44.694;37.790;2023-05-29T01:28:57;23.95;;;10.02;;
75189;SDS011;69198;44.694;37.790;2023-05-29T01:30:02;22.40;;;10.98;;
75189;SDS011;69198;44.694;37.790;2023-05-29T01:31:04;28.08;;;12.93;;
75189;SDS011;69198;44.694;37.790;2023-05-29T01:32:07;22.58;;;11.00;;
75189;SDS011;69198;44.694;37.790;2023-05-29T01:33:08;19.73;;;10.57;;
75189;SDS011;69198;44.694;37.790;2023-05-29T01:34:10;23.70;;;12.03;;
75189;SDS011;69198;44.694;37.790;2023-05-29T01:35:11;22.77;;;11.50;;
75189;SDS011;69198;44.694;37.790;2023-05-29T01:36:12;24.40;;;12.38;;
75189;SDS011;69198;44.694;37.790;2023-05-29T01:37:13;24.65;;;11.90;;
75189;SDS011;69198;44.694;37.790;2023-05-29T01:38:15;26.23;;;12.60;;
75189;SDS011;69198;44.694;37.790;2023-05-29T01:39:16;23.95;;;11.60;;
75189;SDS011;69198;44.694;37.790;2023-05-29T01:40:19;31.85;;;13.65;;
75189;SDS011;69198;44.694;37.790;2023-05-29T01:41:20;26.30;;;13.70;;
75189;SDS011;69198;44.694;37.790;2023-05-29T01:42:23;28.98;;;13.13;;
75189;SDS011;69198;44.694;37.790;2023-05-29T01:43:24;27.35;;;12.60;;
75189;SDS011;69198;44.694;37.790;2023-05-29T01:44:26;29.17;;;14.77;;
75189;SDS011;69198;44.694;37.790;2023-05-29T01:45:29;28.80;;;14.45;;
75189;SDS011;69198;44.694;37.790;2023-05-29T01:46:31;30.05;;;14.25;;
75189;SDS011;69198;44.694;37.790;2023-05-29T01:47:32;29.48;;;14.80;;
75189;SDS011;69198;44.694;37.790;2023-05-29T01:48:34;26.33;;;13.10;;
75189;SDS011;69198;44.694;37.790;2023-05-29T01:49:36;26.88;;;13.50;;
75189;SDS011;69198;44.694;37.790;2023-05-29T01:50:38;28.63;;;14.60;;
75189;SDS011;69198;44.694;37.790;2023-05-29T01:51:40;27.13;;;13.98;;
75189;SDS011;69198;44.694;37.790;2023-05-29T01:52:42;30.77;;;14.60;;
75189;SDS011;69198;44.694;37.790;2023-05-29T01:53:43;27.27;;;14.07;;
75189;SDS011;69198;44.694;37.790;2023-05-29T01:54:45;29.67;;;14.57;;
75189;SDS011;69198;44.694;37.790;2023-05-29T01:55:46;33.40;;;15.68;;
75189;SDS011;69198;44.694;37.790;2023-05-29T01:56:47;30.92;;;14.70;;
75189;SDS011;69198;44.694;37.790;2023-05-29T01:57:50;30.20;;;15.05;;
75189;SDS011;69198;44.694;37.790;2023-05-29T01:58:52;30.52;;;15.23;;
75189;SDS011;69198;44.694;37.790;2023-05-29T01:59:54;31.70;;;15.13;;
75189;SDS011;69198;44.694;37.790;2023-05-29T02:00:55;29.73;;;14.50;;
75189;SDS011;69198;44.694;37.790;2023-05-29T02:02:04;30.00;;;14.57;;
75189;SDS011;69198;44.694;37.790;2023-05-29T02:03:08;33.08;;;15.80;;
75189;SDS011;69198;44.694;37.790;2023-05-29T02:04:09;26.40;;;14.40;;
75189;SDS011;69198;44.694;37.790;2023-05-29T02:05:10;29.53;;;15.57;;
75189;SDS011;69198;44.694;37.790;2023-05-29T02:06:11;33.60;;;14.63;;
75189;SDS011;69198;44.694;37.790;2023-05-29T02:07:12;31.67;;;15.10;;
75189;SDS011;69198;44.694;37.790;2023-05-29T02:08:15;27.98;;;14.13;;
75189;SDS011;69198;44.694;37.790;2023-05-29T02:09:17;27.40;;;14.85;;
75189;SDS011;69198;44.694;37.790;2023-05-29T02:10:18;30.85;;;15.43;;
75189;SDS011;69198;44.694;37.790;2023-05-29T02:11:19;30.08;;;15.27;;
75189;SDS011;69198;44.694;37.790;2023-05-29T02:12:20;31.73;;;16.00;;
75189;SDS011;69198;44.694;37.790;2023-05-29T02:13:22;36.03;;;16.88;;
75189;SDS011;69198;44.694;37.790;2023-05-29T02:14:23;33.73;;;16.47;;
75189;SDS011;69198;44.694;37.790;2023-05-29T02:15:25;34.80;;;16.00;;
75189;SDS011;69198;44.694;37.790;2023-05-29T02:16:26;30.95;;;15.20;;
75189;SDS011;69198;44.694;37.790;2023-05-29T02:17:28;30.27;;;15.27;;
75189;SDS011;69198;44.694;37.790;2023-05-29T02:18:29;31.50;;;15.35;;
75189;SDS011;69198;44.694;37.790;2023-05-29T02:19:30;29.65;;;14.50;;
75189;SDS011;69198;44.694;37.790;2023-05-29T02:20:31;33.85;;;14.30;;
75189;SDS011;69198;44.694;37.790;2023-05-29T02:21:32;31.55;;;14.02;;
75189;SDS011;69198;44.694;37.790;2023-05-29T02:22:33;34.88;;;16.33;;
75189;SDS011;69198;44.694;37.790;2023-05-29T02:23:34;31.80;;;15.07;;
75189;SDS011;69198;44.694;37.790;2023-05-29T02:24:35;30.55;;;13.35;;
75189;SDS011;69198;44.694;37.790;2023-05-29T02:25:36;29.38;;;13.43;;
75189;SDS011;69198;44.694;37.790;2023-05-29T02:26:37;32.13;;;13.77;;
75189;SDS011;69198;44.694;37.790;2023-05-29T02:27:39;30.27;;;13.45;;
75189;SDS011;69198;44.694;37.790;2023-05-29T02:28:40;29.30;;;13.05;;
75189;SDS011;69198;44.694;37.790;2023-05-29T02:29:41;27.70;;;11.93;;
75189;SDS011;69198;44.694;37.790;2023-05-29T02:30:42;28.85;;;12.82;;
75189;SDS011;69198;44.694;37.790;2023-05-29T02:31:43;27.88;;;13.02;;
75189;SDS011;69198;44.694;37.790;2023-05-29T02:32:44;28.70;;;13.70;;
75189;SDS011;69198;44.694;37.790;2023-05-29T02:33:46;29.35;;;13.32;;
75189;SDS011;69198;44.694;37.790;2023-05-29T02:34:47;27.88;;;13.70;;
75189;SDS011;69198;44.694;37.790;2023-05-29T02:35:48;28.42;;;13.20;;
75189;SDS011;69198;44.694;37.790;2023-05-29T02:36:49;24.25;;;11.55;;
75189;SDS011;69198;44.694;37.790;2023-05-29T02:37:52;24.55;;;11.55;;
75189;SDS011;69198;44.694;37.790;2023-05-29T02:38:53;23.63;;;10.93;;
75189;SDS011;69198;44.694;37.790;2023-05-29T02:39:54;26.33;;;10.70;;
75189;SDS011;69198;44.694;37.790;2023-05-29T02:40:55;22.67;;;11.20;;
75189;SDS011;69198;44.694;37.790;2023-05-29T02:41:56;23.98;;;10.75;;
75189;SDS011;69198;44.694;37.790;2023-05-29T02:42:57;23.77;;;11.27;;
75189;SDS011;69198;44.694;37.790;2023-05-29T02:43:58;24.30;;;10.43;;
75189;SDS011;69198;44.694;37.790;2023-05-29T02:45:00;24.40;;;12.27;;
75189;SDS011;69198;44.694;37.790;2023-05-29T02:46:01;23.50;;;11.60;;
75189;SDS011;69198;44.694;37.790;2023-05-29T02:47:02;19.60;;;8.88;;
75189;SDS011;69198;44.694;37.790;2023-05-29T02:48:03;19.77;;;9.25;;
75189;SDS011;69198;44.694;37.790;2023-05-29T02:49:04;22.90;;;11.05;;
75189;SDS011;69198;44.694;37.790;2023-05-29T02:50:05;24.67;;;10.43;;
75189;SDS011;69198;44.694;37.790;2023-05-29T02:51:06;21.63;;;10.30;;
75189;SDS011;69198;44.694;37.790;2023-05-29T02:52:08;20.23;;;8.98;;
75189;SDS011;69198;44.694;37.790;2023-05-29T02:53:09;21.63;;;9.88;;
75189;SDS011;69198;44.694;37.790;2023-05-29T02:54:10;19.65;;;9.40;;
75189;SDS011;69198;44.694;37.790;2023-05-29T02:55:12;19.48;;;8.88;;
75189;SDS011;69198;44.694;37.790;2023-05-29T02:56:13;15.85;;;8.43;;
75189;SDS011;69198;44.694;37.790;2023-05-29T02:57:16;18.93;;;8.77;;
75189;SDS011;69198;44.694;37.790;2023-05-29T02:58:17;15.90;;;8.05;;
75189;SDS011;69198;44.694;37.790;2023-05-29T02:59:18;19.75;;;8.88;;
75189;SDS011;69198;44.694;37.790;2023-05-29T03:00:19;17.38;;;7.93;;
75189;SDS011;69198;44.694;37.790;2023-05-29T03:01:21;18.65;;;7.93;;
75189;SDS011;69198;44.694;37.790;2023-05-29T03:02:23;13.02;;;5.85;;
75189;SDS011;69198;44.694;37.790;2023-05-29T03:03:25;12.55;;;6.05;;
75189;SDS011;69198;44.694;37.790;2023-05-29T03:04:26;15.88;;;6.93;;
75189;SDS011;69198;44.694;37.790;2023-05-29T03:05:28;12.27;;;5.25;;
75189;SDS011;69198;44.694;37.790;2023-05-29T03:06:29;13.45;;;5.45;;
75189;SDS011;69198;44.694;37.790;2023-05-29T03:07:30;12.77;;;5.37;;
75189;SDS011;69198;44.694;37.790;2023-05-29T03:08:31;14.27;;;6.03;;
75189;SDS011;69198;44.694;37.790;2023-05-29T03:09:33;12.52;;;5.65;;
75189;SDS011;69198;44.694;37.790;2023-05-29T03:10:35;13.57;;;5.63;;
75189;SDS011;69198;44.694;37.790;2023-05-29T03:11:36;12.68;;;6.25;;
75189;SDS011;69198;44.694;37.790;2023-05-29T03:12:38;12.50;;;5.82;;
75189;SDS011;69198;44.694;37.790;2023-05-29T03:13:39;10.77;;;5.07;;
75189;SDS011;69198;44.694;37.790;2023-05-29T03:14:43;11.82;;;4.80;;
75189;SDS011;69198;44.694;37.790;2023-05-29T03:15:46;11.65;;;4.85;;
75189;SDS011;69198;44.694;37.790;2023-05-29T03:16:48;12.18;;;4.70;;
75189;SDS011;69198;44.694;37.790;2023-05-29T03:17:52;11.37;;;4.90;;
75189;SDS011;69198;44.694;37.790;2023-05-29T03:18:58;11.95;;;5.50;;
75189;SDS011;69198;44.694;37.790;2023-05-29T03:20:00;10.95;;;4.40;;
75189;SDS011;69198;44.694;37.790;2023-05-29T03:21:01;8.55;;;4.05;;
75189;SDS011;69198;44.694;37.790;2023-05-29T03:22:03;11.27;;;4.82;;
75189;SDS011;69198;44.694;37.790;2023-05-29T03:23:06;11.15;;;4.28;;
75189;SDS011;69198;44.694;37.790;2023-05-29T03:24:09;11.35;;;4.97;;
75189;SDS011;69198;44.694;37.790;2023-05-29T03:25:12;9.90;;;4.13;;
75189;SDS011;69198;44.694;37.790;2023-05-29T03:26:13;9.25;;;3.72;;
75189;SDS011;69198;44.694;37.790;2023-05-29T03:27:16;8.82;;;3.70;;
75189;SDS011;69198;44.694;37.790;2023-05-29T03:28:18;11.37;;;4.10;;
75189;SDS011;69198;44.694;37.790;2023-05-29T03:29:21;9.45;;;3.63;;
75189;SDS011;69198;44.694;37.790;2023-05-29T03:30:22;8.35;;;3.65;;
75189;SDS011;69198;44.694;37.790;2023-05-29T03:31:24;10.07;;;4.50;;
75189;SDS011;69198;44.694;37.790;2023-05-29T03:32:26;9.35;;;3.90;;
75189;SDS011;69198;44.694;37.790;2023-05-29T03:33:27;10.20;;;4.10;;
75189;SDS011;69198;44.694;37.790;2023-05-29T03:34:40;10.85;;;4.25;;
75189;SDS011;69198;44.694;37.790;2023-05-29T03:35:41;9.63;;;4.10;;
75189;SDS011;69198;44.694;37.790;2023-05-29T03:36:42;9.40;;;3.95;;
75189;SDS011;69198;44.694;37.790;2023-05-29T03:37:43;8.83;;;3.67;;
75189;SDS011;69198;44.694;37.790;2023-05-29T03:38:45;8.35;;;3.88;;
75189;SDS011;69198;44.694;37.790;2023-05-29T03:39:46;8.32;;;3.95;;
75189;SDS011;69198;44.694;37.790;2023-05-29T03:40:47;8.07;;;3.95;;
75189;SDS011;69198;44.694;37.790;2023-05-29T03:41:48;9.70;;;3.47;;
75189;SDS011;69198;44.694;37.790;2023-05-29T03:42:50;11.38;;;4.15;;
75189;SDS011;69198;44.694;37.790;2023-05-29T03:43:52;10.13;;;3.83;;
75189;SDS011;69198;44.694;37.790;2023-05-29T03:44:55;9.95;;;3.70;;
75189;SDS011;69198;44.694;37.790;2023-05-29T03:45:58;12.88;;;4.00;;
75189;SDS011;69198;44.694;37.790;2023-05-29T03:47:02;9.63;;;4.17;;
75189;SDS011;69198;44.694;37.790;2023-05-29T03:48:05;11.30;;;4.38;;
75189;SDS011;69198;44.694;37.790;2023-05-29T03:49:06;13.15;;;4.63;;
75189;SDS011;69198;44.694;37.790;2023-05-29T03:50:09;11.43;;;4.68;;
75189;SDS011;69198;44.694;37.790;2023-05-29T03:51:11;9.35;;;4.30;;
75189;SDS011;69198;44.694;37.790;2023-05-29T03:52:14;10.65;;;4.30;;
75189;SDS011;69198;44.694;37.790;2023-05-29T03:53:16;9.90;;;4.10;;
75189;SDS011;69198;44.694;37.790;2023-05-29T03:54:17;8.55;;;4.13;;
75189;SDS011;69198;44.694;37.790;2023-05-29T03:55:19;8.50;;;3.65;;
75189;SDS011;69198;44.694;37.790;2023-05-29T03:56:20;10.00;;;4.07;;
75189;SDS011;69198;44.694;37.790;2023-05-29T03:57:22;12.73;;;4.40;;
75189;SDS011;69198;44.694;37.790;2023-05-29T03:58:23;13.02;;;4.75;;
75189;SDS011;69198;44.694;37.790;2023-05-29T03:59:24;10.90;;;4.82;;
75189;SDS011;69198;44.694;37.790;2023-05-29T04:00:26;10.07;;;4.32;;
75189;SDS011;69198;44.694;37.790;2023-05-29T04:01:30;9.35;;;3.90;;
75189;SDS011;69198;44.694;37.790;2023-05-29T04:02:31;8.45;;;3.53;;
75189;SDS011;69198;44.694;37.790;2023-05-29T04:03:32;8.95;;;3.80;;
75189;SDS011;69198;44.694;37.790;2023-05-29T04:04:33;8.85;;;3.80;;
75189;SDS011;69198;44.694;37.790;2023-05-29T04:05:35;9.38;;;3.58;;
75189;SDS011;69198;44.694;37.790;2023-05-29T04:06:36;10.23;;;3.50;;
75189;SDS011;69198;44.694;37.790;2023-05-29T04:07:39;7.78;;;3.05;;
75189;SDS011;69198;44.694;37.790;2023-05-29T04:08:40;8.15;;;3.58;;
75189;SDS011;69198;44.694;37.790;2023-05-29T04:09:42;11.48;;;3.95;;
75189;SDS011;69198;44.694;37.790;2023-05-29T04:10:43;9.00;;;3.50;;
75189;SDS011;69198;44.694;37.790;2023-05-29T04:11:44;10.45;;;3.50;;
75189;SDS011;69198;44.694;37.790;2023-05-29T04:12:46;9.02;;;3.78;;
75189;SDS011;69198;44.694;37.790;2023-05-29T04:13:49;10.13;;;4.10;;
75189;SDS011;69198;44.694;37.790;2023-05-29T04:14:50;7.88;;;3.50;;
75189;SDS011;69198;44.694;37.790;2023-05-29T04:15:51;12.23;;;4.50;;
75189;SDS011;69198;44.694;37.790;2023-05-29T04:16:53;8.00;;;3.28;;
75189;SDS011;69198;44.694;37.790;2023-05-29T04:17:54;10.63;;;4.30;;
75189;SDS011;69198;44.694;37.790;2023-05-29T04:18:56;8.57;;;3.60;;
75189;SDS011;69198;44.694;37.790;2023-05-29T04:20:02;8.35;;;4.07;;
75189;SDS011;69198;44.694;37.790;2023-05-29T04:21:08;10.18;;;4.60;;
75189;SDS011;69198;44.694;37.790;2023-05-29T04:22:10;12.80;;;4.78;;
75189;SDS011;69198;44.694;37.790;2023-05-29T04:23:12;11.77;;;4.28;;
75189;SDS011;69198;44.694;37.790;2023-05-29T04:24:16;11.35;;;4.93;;
75189;SDS011;69198;44.694;37.790;2023-05-29T04:25:17;11.55;;;4.80;;
75189;SDS011;69198;44.694;37.790;2023-05-29T04:26:19;12.40;;;5.00;;
75189;SDS011;69198;44.694;37.790;2023-05-29T04:27:25;11.77;;;5.07;;
75189;SDS011;69198;44.694;37.790;2023-05-29T04:28:27;10.55;;;5.28;;
75189;SDS011;69198;44.694;37.790;2023-05-29T04:29:29;13.65;;;5.70;;
75189;SDS011;69198;44.694;37.790;2023-05-29T04:30:30;10.82;;;5.03;;
75189;SDS011;69198;44.694;37.790;2023-05-29T04:31:36;11.77;;;5.65;;
75189;SDS011;69198;44.694;37.790;2023-05-29T04:32:37;11.13;;;5.00;;
75189;SDS011;69198;44.694;37.790;2023-05-29T04:33:38;11.30;;;4.90;;
75189;SDS011;69198;44.694;37.790;2023-05-29T04:34:39;11.80;;;5.75;;
75189;SDS011;69198;44.694;37.790;2023-05-29T04:35:41;11.50;;;4.80;;
75189;SDS011;69198;44.694;37.790;2023-05-29T04:36:46;11.77;;;5.40;;
75189;SDS011;69198;44.694;37.790;2023-05-29T04:37:47;9.88;;;4.72;;
75189;SDS011;69198;44.694;37.790;2023-05-29T04:38:48;11.88;;;5.20;;
75189;SDS011;69198;44.694;37.790;2023-05-29T04:39:52;10.73;;;5.32;;
75189;SDS011;69198;44.694;37.790;2023-05-29T04:40:58;13.20;;;6.05;;
75189;SDS011;69198;44.694;37.790;2023-05-29T04:42:00;15.18;;;6.30;;
75189;SDS011;69198;44.694;37.790;2023-05-29T04:43:02;13.85;;;6.63;;
75189;SDS011;69198;44.694;37.790;2023-05-29T04:44:27;13.82;;;6.10;;
75189;SDS011;69198;44.694;37.790;2023-05-29T04:45:29;13.00;;;6.60;;
75189;SDS011;69198;44.694;37.790;2023-05-29T04:46:31;15.32;;;6.43;;
75189;SDS011;69198;44.694;37.790;2023-05-29T04:47:32;13.60;;;6.43;;
75189;SDS011;69198;44.694;37.790;2023-05-29T04:48:33;14.95;;;6.45;;
75189;SDS011;69198;44.694;37.790;2023-05-29T04:49:34;13.75;;;6.88;;
75189;SDS011;69198;44.694;37.790;2023-05-29T04:50:35;15.38;;;6.90;;
75189;SDS011;69198;44.694;37.790;2023-05-29T04:51:39;15.27;;;7.80;;
75189;SDS011;69198;44.694;37.790;2023-05-29T04:52:41;15.18;;;7.15;;
75189;SDS011;69198;44.694;37.790;2023-05-29T04:53:44;16.73;;;7.47;;
75189;SDS011;69198;44.694;37.790;2023-05-29T04:54:47;15.40;;;7.35;;
75189;SDS011;69198;44.694;37.790;2023-05-29T04:55:49;16.60;;;8.32;;
75189;SDS011;69198;44.694;37.790;2023-05-29T04:56:51;19.23;;;8.35;;
75189;SDS011;69198;44.694;37.790;2023-05-29T04:57:53;15.50;;;8.23;;
75189;SDS011;69198;44.694;37.790;2023-05-29T04:58:54;18.08;;;7.93;;
75189;SDS011;69198;44.694;37.790;2023-05-29T04:59:56;19.67;;;7.72;;
75189;SDS011;69198;44.694;37.790;2023-05-29T05:00:57;16.25;;;8.88;;
75189;SDS011;69198;44.694;37.790;2023-05-29T05:02:03;17.02;;;8.30;;
75189;SDS011;69198;44.694;37.790;2023-05-29T05:03:04;18.35;;;8.55;;
75189;SDS011;69198;44.694;37.790;2023-05-29T05:04:05;18.02;;;8.65;;
75189;SDS011;69198;44.694;37.790;2023-05-29T05:05:07;18.10;;;9.20;;
75189;SDS011;69198;44.694;37.790;2023-05-29T05:06:09;20.60;;;9.18;;
75189;SDS011;69198;44.694;37.790;2023-05-29T05:07:11;19.13;;;9.10;;
75189;SDS011;69198;44.694;37.790;2023-05-29T05:08:12;18.80;;;9.30;;
75189;SDS011;69198;44.694;37.790;2023-05-29T05:09:13;16.83;;;8.30;;
75189;SDS011;69198;44.694;37.790;2023-05-29T05:10:15;22.25;;;9.10;;
75189;SDS011;69198;44.694;37.790;2023-05-29T05:11:17;18.77;;;8.85;;
75189;SDS011;69198;44.694;37.790;2023-05-29T05:12:19;19.85;;;9.27;;
75189;SDS011;69198;44.694;37.790;2023-05-29T05:13:20;17.80;;;8.77;;
75189;SDS011;69198;44.694;37.790;2023-05-29T05:14:22;19.70;;;9.25;;
75189;SDS011;69198;44.694;37.790;2023-05-29T05:15:23;23.80;;;9.05;;
75189;SDS011;69198;44.694;37.790;2023-05-29T05:16:24;17.13;;;8.53;;
75189;SDS011;69198;44.694;37.790;2023-05-29T05:17:25;17.25;;;8.63;;
75189;SDS011;69198;44.694;37.790;2023-05-29T05:18:26;19.25;;;8.95;;
75189;SDS011;69198;44.694;37.790;2023-05-29T05:19:35;18.02;;;8.45;;
75189;SDS011;69198;44.694;37.790;2023-05-29T05:20:36;17.08;;;8.85;;
75189;SDS011;69198;44.694;37.790;2023-05-29T05:21:37;20.45;;;9.55;;
75189;SDS011;69198;44.694;37.790;2023-05-29T05:22:38;16.70;;;9.02;;
75189;SDS011;69198;44.694;37.790;2023-05-29T05:23:40;18.10;;;9.35;;
75189;SDS011;69198;44.694;37.790;2023-05-29T05:24:43;20.92;;;8.98;;
75189;SDS011;69198;44.694;37.790;2023-05-29T05:25:45;16.70;;;8.43;;
75189;SDS011;69198;44.694;37.790;2023-05-29T05:26:46;19.13;;;8.87;;
75189;SDS011;69198;44.694;37.790;2023-05-29T05:27:48;19.77;;;8.82;;
75189;SDS011;69198;44.694;37.790;2023-05-29T05:28:51;17.75;;;8.70;;
75189;SDS011;69198;44.694;37.790;2023-05-29T05:29:52;17.80;;;9.63;;
75189;SDS011;69198;44.694;37.790;2023-05-29T05:30:53;16.35;;;9.48;;
75189;SDS011;69198;44.694;37.790;2023-05-29T05:31:54;21.45;;;8.90;;
75189;SDS011;69198;44.694;37.790;2023-05-29T05:32:55;19.60;;;8.68;;
75189;SDS011;69198;44.694;37.790;2023-05-29T05:33:57;20.08;;;8.90;;
75189;SDS011;69198;44.694;37.790;2023-05-29T05:34:58;20.40;;;9.10;;
75189;SDS011;69198;44.694;37.790;2023-05-29T05:36:00;18.88;;;9.20;;
75189;SDS011;69198;44.694;37.790;2023-05-29T05:37:01;19.35;;;9.45;;
75189;SDS011;69198;44.694;37.790;2023-05-29T05:38:03;20.23;;;10.02;;
75189;SDS011;69198;44.694;37.790;2023-05-29T05:39:04;22.65;;;9.68;;
75189;SDS011;69198;44.694;37.790;2023-05-29T05:40:06;24.50;;;9.68;;
75189;SDS011;69198;44.694;37.790;2023-05-29T05:41:11;20.55;;;10.02;;
75189;SDS011;69198;44.694;37.790;2023-05-29T05:42:14;22.05;;;9.98;;
75189;SDS011;69198;44.694;37.790;2023-05-29T05:43:29;20.25;;;9.30;;
75189;SDS011;69198;44.694;37.790;2023-05-29T05:44:56;21.65;;;9.80;;
75189;SDS011;69198;44.694;37.790;2023-05-29T05:45:57;22.13;;;9.97;;
75189;SDS011;69198;44.694;37.790;2023-05-29T05:46:59;19.88;;;9.63;;
75189;SDS011;69198;44.694;37.790;2023-05-29T05:48:00;22.40;;;9.77;;
75189;SDS011;69198;44.694;37.790;2023-05-29T05:49:01;24.10;;;10.23;;
75189;SDS011;69198;44.694;37.790;2023-05-29T05:50:03;23.00;;;10.20;;
75189;SDS011;69198;44.694;37.790;2023-05-29T05:51:07;20.35;;;10.68;;
75189;SDS011;69198;44.694;37.790;2023-05-29T05:52:09;21.13;;;9.93;;
75189;SDS011;69198;44.694;37.790;2023-05-29T05:53:10;17.88;;;9.63;;
75189;SDS011;69198;44.694;37.790;2023-05-29T05:54:12;24.33;;;10.05;;
75189;SDS011;69198;44.694;37.790;2023-05-29T05:55:13;22.67;;;10.50;;
75189;SDS011;69198;44.694;37.790;2023-05-29T05:56:14;21.27;;;10.70;;
75189;SDS011;69198;44.694;37.790;2023-05-29T05:57:15;21.65;;;9.85;;
75189;SDS011;69198;44.694;37.790;2023-05-29T05:58:16;20.17;;;9.40;;
75189;SDS011;69198;44.694;37.790;2023-05-29T05:59:18;22.25;;;10.00;;
75189;SDS011;69198;44.694;37.790;2023-05-29T06:00:19;22.20;;;10.23;;
75189;SDS011;69198;44.694;37.790;2023-05-29T06:01:20;22.85;;;10.60;;
75189;SDS011;69198;44.694;37.790;2023-05-29T06:02:22;22.48;;;10.63;;
75189;SDS011;69198;44.694;37.790;2023-05-29T06:03:24;26.33;;;11.23;;
75189;SDS011;69198;44.694;37.790;2023-05-29T06:04:36;26.13;;;11.10;;
75189;SDS011;69198;44.694;37.790;2023-05-29T06:05:37;29.07;;;11.47;;
75189;SDS011;69198;44.694;37.790;2023-05-29T06:06:40;24.77;;;11.57;;
75189;SDS011;69198;44.694;37.790;2023-05-29T06:07:42;27.85;;;12.15;;
75189;SDS011;69198;44.694;37.790;2023-05-29T06:08:44;34.33;;;12.50;;
75189;SDS011;69198;44.694;37.790;2023-05-29T06:09:46;30.15;;;12.82;;
75189;SDS011;69198;44.694;37.790;2023-05-29T06:10:48;30.70;;;12.18;;